Pike County Airport

About
Name: Pike County Airport
Identifier:  MCB/KMCB
Local Time:  18. Aug 11:58 CDT
Location
Flights per Day
0 flights
Distance: 652km (405mi)
Punctuality
0% (0 flights per day delayed)
Delay Average: 36 minutes
Current Weather
 31 C (Humidity: 66%)
  6kt (11km/h / 6mph) from 240°
  Scattered clouds at 2,600 feet (792 meter)
  16km (10 mi.)
 METAR KMCB 181604Z AUTO 24006KT 10SM SCT026 31/24 A3001 RMK AO2 T03110239

Current Flights

Departures
Number Departure To Airline
Arrivals
Number Arrival From Airline

Current Delays

Departures
N/A
Arrivals
N/A

Destinations

Top Destinations
Airport Flights
per week
Seats
per week
  Panama City (ECP) 0 - 0 0
  Denton (QQD) 0 - 0 0
  Tupelo (TUP) 0 - 0 0
  Tuscaloosa (TCL) 0 - 0 0
  Jackson (JAN) 0 - 0 0
  San Antonio (SAT) 0 - 0 0
  Conroe (CXO) 0 - 0 0

Airlines & Planes

Top Airlines
Airline Flights
per Day
Seats
per Day
  Berry Aviation 0 -
  Novair 0 -
Nordwind Airlines 0 -
Jet Charter Inc ( Franklin Lakes Nj ) 0 -
  National Airlines 0 -
Top Plane Types
Model Flights Seats
Embraer EMB120 0.1/day - 0
Cirrus SR22 0.1/day - 0
Beech 58 0.1/day - 0
Beech G36 Bonanza 0.0/day - 0